createdAt,value
2023-02-08T00:01:34.512Z,102498.58
2023-02-08T00:06:42.440Z,102503.83
2023-02-08T00:11:50.126Z,102520.11
2023-02-08T00:16:57.585Z,102515.56
2023-02-08T00:22:05.162Z,102519.89
2023-02-08T00:27:12.802Z,102522.13
2023-02-08T00:32:20.908Z,102517.27
2023-02-08T00:37:28.320Z,102522.42
2023-02-08T00:42:36.146Z,102521.35
2023-02-08T00:47:44.047Z,102516.11
2023-02-08T00:52:51.947Z,102506.86
2023-02-08T00:57:59.545Z,102505.21
2023-02-08T01:03:07.976Z,102504.84
2023-02-08T01:08:15.833Z,102501.64
2023-02-08T01:13:23.593Z,102498.61
2023-02-08T01:18:31.841Z,102498.35
2023-02-08T01:23:39.929Z,102500.94
2023-02-08T01:28:47.876Z,102499.86
2023-02-08T01:33:55.738Z,102499.24
2023-02-08T01:39:03.607Z,102496.17
2023-02-08T01:44:26.515Z,102499.69
2023-02-08T01:49:39.813Z,102499.91
2023-02-08T01:54:49.529Z,102494.26
2023-02-08T02:00:02.766Z,102498.58
2023-02-08T02:05:22.141Z,102501.90
2023-02-08T02:10:32.718Z,102499.17
2023-02-08T02:15:40.341Z,102496.92
2023-02-08T02:21:04.613Z,102503.18
2023-02-08T02:26:37.586Z,102506.12
2023-02-08T02:32:01.643Z,102505.94
2023-02-08T02:37:19.677Z,102509.17
2023-02-08T02:42:54.451Z,102507.04
2023-02-08T02:48:12.091Z,102500.92
2023-02-08T02:53:23.628Z,102502.02
2023-02-08T02:58:33.222Z,102523.46
2023-02-08T03:03:41.024Z,102526.59
2023-02-08T03:09:08.757Z,102538.60
2023-02-08T03:14:44.227Z,102544.57
2023-02-08T03:20:00.134Z,102546.70
2023-02-08T03:25:15.036Z,102550.92
2023-02-08T03:30:30.094Z,102557.69
2023-02-08T03:35:40.411Z,102566.04
2023-02-08T03:40:50.502Z,102568.70
2023-02-08T03:46:05.225Z,102575.23
2023-02-08T03:51:13.083Z,102579.10
2023-02-08T03:56:28.943Z,102580.04
2023-02-08T04:01:43.801Z,102582.57
2023-02-08T04:06:51.466Z,102588.79
2023-02-08T04:11:59.137Z,102600.05
2023-02-08T04:17:06.568Z,102606.96
2023-02-08T04:22:14.145Z,102611.98
2023-02-08T04:27:21.886Z,102610.79
2023-02-08T04:32:29.435Z,102611.16
2023-02-08T04:37:36.874Z,102615.02
2023-02-08T04:42:44.270Z,102612.77
2023-02-08T04:47:51.788Z,102609.88
2023-02-08T04:52:59.310Z,102608.68
2023-02-08T04:58:06.825Z,102612.33
2023-02-08T05:03:14.290Z,102617.54
2023-02-08T05:08:21.747Z,102620.49
2023-02-08T05:13:29.076Z,102622.63
2023-02-08T05:18:36.359Z,102617.79
2023-02-08T05:23:45.786Z,102620.92
2023-02-08T05:28:54.663Z,102617.65
2023-02-08T05:34:02.097Z,102616.59
2023-02-08T05:39:09.904Z,102621.95
2023-02-08T05:44:17.222Z,102625.99
2023-02-08T05:49:24.773Z,102627.60
2023-02-08T05:54:32.455Z,102632.65
2023-02-08T05:59:39.941Z,102634.58
2023-02-08T06:04:47.819Z,102634.31
2023-02-08T06:09:55.341Z,102639.13
2023-02-08T06:15:02.762Z,102649.49
2023-02-08T06:20:12.183Z,102650.62
2023-02-08T06:25:20.170Z,102658.69
2023-02-08T06:30:27.779Z,102667.14
2023-02-08T06:35:35.315Z,102672.95
2023-02-08T06:40:42.910Z,102674.84
2023-02-08T06:45:50.798Z,102676.05
2023-02-08T06:50:58.373Z,102676.17
2023-02-08T06:56:05.933Z,102678.00
2023-02-08T07:01:15.415Z,102674.30
2023-02-08T07:06:23.654Z,102678.77
2023-02-08T07:11:30.922Z,102683.04
2023-02-08T07:16:38.500Z,102690.34
2023-02-08T07:21:46.043Z,102692.15
2023-02-08T07:26:53.454Z,102691.66
2023-02-08T07:32:02.430Z,102690.50
2023-02-08T07:37:10.018Z,102695.98
2023-02-08T07:42:17.496Z,102700.73
2023-02-08T07:47:33.126Z,102697.41
2023-02-08T07:52:41.642Z,102697.55
2023-02-08T07:57:50.547Z,102698.58
2023-02-08T08:02:57.871Z,102702.94
2023-02-08T08:08:05.323Z,102699.98
2023-02-08T08:13:12.836Z,102699.59
2023-02-08T08:18:20.385Z,102701.16
2023-02-08T08:23:29.473Z,102695.85
2023-02-08T08:28:37.052Z,102691.08
2023-02-08T08:33:44.689Z,102692.55
2023-02-08T08:38:53.073Z,102715.05
2023-02-08T08:44:00.599Z,102718.11
2023-02-08T08:49:07.968Z,102721.94
2023-02-08T08:54:15.419Z,102723.05
2023-02-08T08:59:22.916Z,102725.62
2023-02-08T09:04:30.464Z,102723.34
2023-02-08T09:09:39.083Z,102724.83
2023-02-08T09:14:46.849Z,102715.70
2023-02-08T09:19:54.668Z,102714.89
2023-02-08T09:25:02.805Z,102706.20
2023-02-08T09:30:12.204Z,102711.73
2023-02-08T09:35:20.812Z,102714.23
2023-02-08T09:40:36.574Z,102712.19
2023-02-08T09:45:59.850Z,102710.70
2023-02-08T09:51:13.317Z,102709.36
2023-02-08T09:56:27.853Z,102717.25
2023-02-08T10:01:38.596Z,102716.86
2023-02-08T10:06:46.897Z,102716.88
2023-02-08T10:12:04.981Z,102715.03
2023-02-08T10:17:49.122Z,102711.37
2023-02-08T10:23:07.865Z,102702.23
2023-02-08T10:28:34.161Z,102699.53
2023-02-08T10:33:51.278Z,102697.73
2023-02-08T10:39:01.236Z,102696.27
2023-02-08T10:44:17.063Z,102693.33
2023-02-08T10:49:33.920Z,102681.76
2023-02-08T10:54:41.658Z,102676.97
2023-02-08T10:59:54.563Z,102672.66
2023-02-08T11:05:08.123Z,102669.58
2023-02-08T11:10:27.856Z,102669.02
2023-02-08T11:15:46.804Z,102672.48
2023-02-08T11:20:59.051Z,102673.35
2023-02-08T11:26:18.086Z,102671.55
2023-02-08T11:31:27.912Z,102669.96
2023-02-08T11:36:37.432Z,102666.06
2023-02-08T11:41:47.386Z,102656.84
2023-02-08T11:46:57.077Z,102649.77
2023-02-08T11:52:04.851Z,102646.63
2023-02-08T11:57:21.826Z,102653.79
2023-02-08T12:02:40.132Z,102657.17
2023-02-08T12:08:10.526Z,102660.77
2023-02-08T12:13:39.896Z,102650.78
2023-02-08T12:19:18.643Z,102650.55
2023-02-08T12:24:38.552Z,102660.56
2023-02-08T12:29:56.295Z,102666.67
2023-02-08T12:35:39.922Z,102670.46
2023-02-08T12:41:03.692Z,102664.52
2023-02-08T12:46:35.462Z,102656.16
2023-02-08T12:51:50.284Z,102647.80
2023-02-08T12:57:02.405Z,102648.05
2023-02-08T13:02:19.764Z,102653.78
2023-02-08T13:07:34.148Z,102647.60
2023-02-08T13:12:46.225Z,102640.48
2023-02-08T13:17:56.912Z,102635.98
2023-02-08T13:23:14.978Z,102635.67
2023-02-08T13:28:26.547Z,102631.20
2023-02-08T13:33:59.259Z,102630.89
2023-02-08T13:39:10.911Z,102625.45
2023-02-08T13:44:29.038Z,102617.14
2023-02-08T13:49:59.069Z,102615.58
2023-02-08T13:55:52.043Z,102617.29
2023-02-08T14:01:24.072Z,102621.56
2023-02-08T14:06:34.644Z,102616.69
2023-02-08T14:11:50.155Z,102613.31
2023-02-08T14:17:21.005Z,102606.43
2023-02-08T14:22:33.651Z,102603.52
2023-02-08T14:27:52.136Z,102594.05
2023-02-08T14:33:22.257Z,102602.42
2023-02-08T14:39:08.691Z,102603.97
2023-02-08T14:44:56.584Z,102611.27
2023-02-08T14:50:18.499Z,102612.93
2023-02-08T14:55:29.619Z,102605.02
2023-02-08T15:00:40.437Z,102598.15
2023-02-08T15:06:10.505Z,102594.20
2023-02-08T15:11:27.169Z,102588.52
2023-02-08T15:16:42.695Z,102588.89
2023-02-08T15:21:52.052Z,102585.82
2023-02-08T15:27:01.338Z,102592.20
2023-02-08T15:32:18.308Z,102588.80
2023-02-08T15:37:26.429Z,102590.14
2023-02-08T15:42:37.506Z,102589.94
2023-02-08T15:47:45.694Z,102594.25
2023-02-08T15:53:02.468Z,102583.67
2023-02-08T15:58:18.490Z,102587.80
2023-02-08T16:03:28.385Z,102590.72
2023-02-08T16:08:40.389Z,102588.32
2023-02-08T16:13:52.025Z,102589.54
2023-02-08T16:19:05.950Z,102589.98
2023-02-08T16:24:24.891Z,102566.59
2023-02-08T16:29:34.412Z,102577.35
2023-02-08T16:34:42.731Z,102573.20
2023-02-08T16:40:02.986Z,102571.00
2023-02-08T16:45:26.462Z,102571.87
2023-02-08T16:50:43.256Z,102570.33
2023-02-08T16:55:51.097Z,102569.66
2023-02-08T17:01:00.458Z,102561.96
2023-02-08T17:06:09.777Z,102560.39
2023-02-08T17:11:17.546Z,102558.69
2023-02-08T17:16:26.862Z,102557.46
2023-02-08T17:21:35.081Z,102563.31
2023-02-08T17:26:45.487Z,102556.64
2023-02-08T17:31:53.284Z,102556.95
2023-02-08T17:37:01.234Z,102550.84
2023-02-08T17:42:09.313Z,102547.94
2023-02-08T17:47:17.474Z,102545.23
2023-02-08T17:52:25.486Z,102545.16
2023-02-08T17:57:34.793Z,102542.36
2023-02-08T18:02:43.639Z,102550.77
2023-02-08T18:07:52.008Z,102548.19
2023-02-08T18:12:59.528Z,102545.55
2023-02-08T18:18:07.205Z,102552.02
2023-02-08T18:23:15.744Z,102548.75
2023-02-08T18:28:23.624Z,102550.46
2023-02-08T18:33:31.134Z,102546.39
2023-02-08T18:38:38.817Z,102541.64
2023-02-08T18:43:46.519Z,102537.16
2023-02-08T18:48:55.082Z,102527.88
2023-02-08T18:54:02.818Z,102516.94
2023-02-08T18:59:11.234Z,102512.34
2023-02-08T19:04:18.775Z,102503.21
2023-02-08T19:09:26.365Z,102496.92
2023-02-08T19:14:33.748Z,102489.83
2023-02-08T19:19:41.172Z,102476.83
2023-02-08T19:24:48.763Z,102472.09
2023-02-08T19:29:56.926Z,102475.48
2023-02-08T19:35:04.428Z,102468.63
2023-02-08T19:40:14.773Z,102475.85
2023-02-08T19:45:22.332Z,102475.03
2023-02-08T19:50:29.729Z,102465.31
2023-02-08T19:55:37.090Z,102459.91
2023-02-08T20:00:44.712Z,102454.76
2023-02-08T20:05:53.977Z,102456.17
2023-02-08T20:11:01.448Z,102456.27
2023-02-08T20:16:09.407Z,102454.61
2023-02-08T20:21:17.040Z,102452.99
2023-02-08T20:26:26.642Z,102445.98
2023-02-08T20:31:35.513Z,102431.03
2023-02-08T20:36:54.508Z,102418.69
2023-02-08T20:42:10.323Z,102415.73
2023-02-08T20:47:19.770Z,102410.12
2023-02-08T20:52:27.003Z,102395.70
2023-02-08T20:57:34.254Z,102386.73
2023-02-08T21:02:42.328Z,102375.70
2023-02-08T21:07:49.960Z,102366.41
2023-02-08T21:12:57.400Z,102358.70
2023-02-08T21:18:04.903Z,102348.40
2023-02-08T21:23:12.695Z,102352.90
2023-02-08T21:28:20.208Z,102350.16
2023-02-08T21:33:28.031Z,102352.08
2023-02-08T21:38:35.262Z,102359.35
2023-02-08T21:43:42.844Z,102363.38
2023-02-08T21:49:07.862Z,102369.87
2023-02-08T21:54:35.233Z,102366.36
2023-02-08T21:59:42.694Z,102364.07
2023-02-08T22:04:50.239Z,102356.21
2023-02-08T22:09:57.998Z,102352.38
2023-02-08T22:15:05.969Z,102343.67
2023-02-08T22:20:15.376Z,102337.39
2023-02-08T22:25:23.855Z,102337.52
2023-02-08T22:30:31.874Z,102333.31
2023-02-08T22:35:40.142Z,102330.98
2023-02-08T22:40:47.727Z,102315.35
2023-02-08T22:46:01.972Z,102312.02
2023-02-08T22:51:15.141Z,102306.91
2023-02-08T22:56:22.928Z,102304.55
2023-02-08T23:01:31.081Z,102298.95
2023-02-08T23:06:39.167Z,102296.79
2023-02-08T23:11:52.305Z,102302.72
2023-02-08T23:16:59.852Z,102299.73
2023-02-08T23:22:07.362Z,102300.34
2023-02-08T23:27:14.713Z,102295.06
2023-02-08T23:32:22.161Z,102295.48
2023-02-08T23:37:29.757Z,102288.20
2023-02-08T23:42:37.162Z,102286.52
2023-02-08T23:47:44.796Z,102286.20
2023-02-08T23:52:52.081Z,102277.42
2023-02-08T23:57:59.446Z,102272.14
